Time;durP1;ratioP1;P1;durP2;ratioP2;P2;SDS_P1;SDS_P2;PMS_P1;PMS_P2;Temp;Humidity;BMP_temperature;BMP_pressure;BME280_temperature;BME280_humidity;BME280_pressure;Samples;Min_cycle;Max_cycle;Signal;HPM_P1;HPM_P2
2022/12/08 00:00:11;;;;;;;232.10;217.20;;;3.10;21.20;;;;;;5051727;28;20185;-70
2022/12/08 00:02:36;;;;;;;247.03;229.37;;;3.10;21.10;;;;;;5051539;28;20616;-71
2022/12/08 00:10:30;;;;;;;367.55;343.33;;;2.90;21.30;;;;;;5051640;28;20208;-69
2022/12/08 00:12:56;;;;;;;376.50;351.70;;;2.80;22.00;;;;;;5051447;28;20177;-69
2022/12/08 00:15:21;;;;;;;407.17;382.40;;;2.60;21.90;;;;;;5051513;28;20236;-70
2022/12/08 00:17:47;;;;;;;384.50;361.30;;;2.50;21.90;;;;;;5051536;28;20216;-71
2022/12/08 00:20:12;;;;;;;209.63;194.37;;;2.30;21.70;;;;;;5051684;28;20204;-70
2022/12/08 00:22:38;;;;;;;224.37;208.00;;;2.30;22.30;;;;;;5051349;28;20253;-69
2022/12/08 00:25:04;;;;;;;261.27;243.23;;;2.20;22.00;;;;;;5050195;28;20211;-69
2022/12/08 00:27:30;;;;;;;179.45;165.45;;;2.10;22.50;;;;;;5051490;28;20187;-70
2022/12/08 00:29:55;;;;;;;248.00;230.80;;;2.00;22.40;;;;;;5051459;28;20186;-71
2022/12/08 00:32:21;;;;;;;163.43;148.93;;;2.00;22.40;;;;;;5051162;28;20181;-69
2022/12/08 00:34:46;;;;;;;220.63;204.53;;;1.80;23.00;;;;;;5051351;28;20206;-69
2022/12/08 00:37:12;;;;;;;192.20;177.80;;;1.80;23.10;;;;;;5050092;28;20189;-70
2022/12/08 00:39:37;;;;;;;276.27;258.17;;;1.70;23.20;;;;;;5051313;28;20172;-69
2022/12/08 00:42:12;;;;;;;299.33;279.27;;;1.60;23.30;;;;;;5051090;28;20177;-69
2022/12/08 00:44:42;;;;;;;124.65;112.90;;;1.60;23.60;;;;;;5051340;28;20196;-70
2022/12/08 00:47:08;;;;;;;115.65;104.05;;;1.50;24.00;;;;;;5051332;28;20176;-70
2022/12/08 00:49:34;;;;;;;151.30;138.90;;;1.50;23.90;;;;;;5051300;28;20199;-71
2022/12/08 00:52:00;;;;;;;227.90;212.57;;;1.40;24.00;;;;;;5051045;28;20641;-70
2022/12/08 00:54:25;;;;;;;144.87;133.13;;;1.40;23.70;;;;;;5051157;28;20209;-69
2022/12/08 00:56:51;;;;;;;179.27;166.47;;;1.30;24.40;;;;;;5052676;28;20517;-70
2022/12/08 00:59:17;;;;;;;166.47;153.57;;;1.20;24.60;;;;;;5055245;28;20175;-69
2022/12/08 01:01:44;;;;;;;146.03;134.23;;;1.20;24.70;;;;;;5054545;28;20420;-70
2022/12/08 01:04:14;;;;;;;144.25;132.10;;;1.10;25.20;;;;;;5054815;28;20174;-69
2022/12/08 01:06:40;;;;;;;160.82;147.85;;;1.00;25.80;;;;;;5054806;28;20643;-69
2022/12/08 01:09:07;;;;;;;163.60;150.27;;;1.00;25.80;;;;;;5054740;28;20180;-70
2022/12/08 01:11:34;;;;;;;102.15;89.20;;;1.00;25.90;;;;;;5054437;28;20186;-71
2022/12/08 01:14:00;;;;;;;92.63;73.97;;;0.90;26.20;;;;;;5054566;28;20269;-69
2022/12/08 01:16:29;;;;;;;114.13;101.88;;;0.80;26.40;;;;;;5054555;28;20207;-70
2022/12/08 01:18:56;;;;;;;103.00;92.18;;;0.70;27.30;;;;;;5055012;28;20178;-70
2022/12/08 01:21:22;;;;;;;86.72;66.45;;;0.70;27.30;;;;;;5053216;28;20212;-71
2022/12/08 01:23:47;;;;;;;127.33;115.63;;;0.70;27.20;;;;;;5054122;28;20189;-69
2022/12/08 01:26:15;;;;;;;88.40;57.83;;;0.70;27.30;;;;;;5054406;28;20198;-69
2022/12/08 01:28:42;;;;;;;93.82;83.07;;;0.60;27.30;;;;;;5054399;28;20175;-69
2022/12/08 01:31:13;;;;;;;88.70;61.88;;;0.50;27.70;;;;;;5054249;28;20179;-69
2022/12/08 01:33:39;;;;;;;84.20;64.90;;;0.40;27.90;;;;;;5053991;28;20174;-70
2022/12/08 01:36:05;;;;;;;93.13;74.07;;;0.40;27.90;;;;;;5054112;28;20212;-69
2022/12/08 01:38:31;;;;;;;95.55;84.00;;;0.40;27.90;;;;;;5054304;28;20406;-69
2022/12/08 01:40:57;;;;;;;84.85;55.50;;;0.40;27.50;;;;;;5053224;28;20706;-70
2022/12/08 01:43:22;;;;;;;96.63;86.17;;;0.30;28.20;;;;;;5053914;28;20218;-69
2022/12/08 01:45:48;;;;;;;90.83;76.93;;;0.30;28.40;;;;;;5053985;28;20236;-69
2022/12/08 01:48:21;;;;;;;89.93;80.30;;;0.20;28.50;;;;;;5054118;28;20174;-69
2022/12/08 01:50:48;;;;;;;83.45;55.38;;;0.10;28.70;;;;;;5054088;28;20182;-70
2022/12/08 01:53:22;;;;;;;85.65;68.85;;;-0.10;29.20;;;;;;5053702;28;20186;-70
2022/12/08 01:55:54;;;;;;;88.65;78.72;;;0.00;29.50;;;;;;5053798;28;20710;-71
2022/12/08 01:58:27;;;;;;;94.55;65.40;;;0.00;29.30;;;;;;5053855;28;20598;-69
2022/12/08 02:00:52;;;;;;;87.32;72.32;;;-0.10;29.60;;;;;;5053738;28;20175;-69
2022/12/08 02:03:30;;;;;;;91.27;80.40;;;-0.10;29.60;;;;;;5053431;28;20677;-70
2022/12/08 02:05:57;;;;;;;179.45;164.93;;;-0.10;29.50;;;;;;5053626;28;20198;-70
2022/12/08 02:08:24;;;;;;;84.07;62.92;;;-0.20;30.00;;;;;;5052641;28;20184;-70
2022/12/08 02:10:51;;;;;;;92.72;70.68;;;-0.20;29.60;;;;;;5054052;28;20178;-71
2022/12/08 02:13:19;;;;;;;88.80;74.53;;;-0.30;30.00;;;;;;5053348;28;20179;-70
2022/12/08 02:15:52;;;;;;;98.25;81.55;;;-0.30;30.20;;;;;;5053661;28;20639;-69
2022/12/08 02:18:31;;;;;;;86.55;56.35;;;-0.30;30.30;;;;;;5053373;28;20232;-69
2022/12/08 02:21:13;;;;;;;82.68;58.17;;;-0.30;30.80;;;;;;5053522;28;20187;-70
2022/12/08 02:23:43;;;;;;;83.07;58.70;;;-0.30;30.90;;;;;;5053078;28;20237;-71
2022/12/08 02:26:38;;;;;;;89.72;59.28;;;-0.30;31.10;;;;;;5053242;28;20576;-71
2022/12/08 02:29:31;;;;;;;95.65;84.85;;;-0.30;30.40;;;;;;5053318;28;20439;-69
2022/12/08 02:32:06;;;;;;;97.07;86.72;;;-0.40;30.80;;;;;;5053004;28;20185;-70
2022/12/08 02:34:48;;;;;;;86.18;58.63;;;-0.40;30.80;;;;;;5053104;28;20205;-70
2022/12/08 02:37:29;;;;;;;86.57;70.72;;;-0.40;30.80;;;;;;5053301;28;20171;-69
2022/12/08 02:40:01;;;;;;;86.50;70.05;;;-0.50;30.80;;;;;;5053320;28;20272;-70
2022/12/08 02:42:33;;;;;;;88.32;67.18;;;-0.50;31.10;;;;;;5053021;28;20228;-69
2022/12/08 02:44:58;;;;;;;93.90;76.18;;;-0.60;31.50;;;;;;5053070;28;20201;-70
2022/12/08 02:47:26;;;;;;;106.57;95.63;;;-0.50;31.50;;;;;;5053044;28;20280;-69
2022/12/08 02:49:54;;;;;;;91.97;71.72;;;-0.50;31.60;;;;;;5052890;28;20186;-69
2022/12/08 02:52:20;;;;;;;83.68;60.45;;;-0.50;32.00;;;;;;5052663;28;20177;-70
2022/12/08 02:54:51;;;;;;;90.63;79.30;;;-0.50;31.40;;;;;;5052708;28;20213;-69
2022/12/08 02:57:47;;;;;;;88.03;73.50;;;-0.60;32.20;;;;;;5052714;28;20269;-69
2022/12/08 03:00:15;;;;;;;92.63;74.25;;;-0.60;31.50;;;;;;5052670;28;20175;-70
2022/12/08 03:02:43;;;;;;;81.60;47.92;;;-0.70;31.60;;;;;;5052486;28;20281;-69
2022/12/08 03:05:27;;;;;;;88.03;66.80;;;-0.70;31.50;;;;;;5052621;28;20241;-69
2022/12/08 03:08:18;;;;;;;82.63;58.22;;;-0.80;32.60;;;;;;5052809;28;20533;-70
2022/12/08 03:10:56;;;;;;;85.18;70.55;;;-0.80;32.60;;;;;;5052838;28;20228;-70
2022/12/08 03:13:38;;;;;;;86.00;53.65;;;-0.80;32.40;;;;;;5052308;28;20237;-69
2022/12/08 03:16:07;;;;;;;88.95;62.47;;;-0.80;33.30;;;;;;5052284;28;20304;-70
2022/12/08 03:18:37;;;;;;;82.47;57.40;;;-0.80;33.30;;;;;;5052341;28;20543;-70
2022/12/08 03:21:04;;;;;;;85.10;69.38;;;-0.90;32.50;;;;;;5052217;28;20177;-70
2022/12/08 03:23:31;;;;;;;84.32;46.88;;;-0.90;33.20;;;;;;5050777;28;20181;-69
2022/12/08 03:26:19;;;;;;;83.03;52.13;;;-0.90;33.20;;;;;;5052161;28;20247;-69
2022/12/08 03:28:45;;;;;;;83.38;65.18;;;-0.90;33.20;;;;;;5052113;28;20669;-70
2022/12/08 03:31:13;;;;;;;89.88;64.38;;;-0.90;33.20;;;;;;5052117;28;20259;-70
2022/12/08 03:33:42;;;;;;;85.60;61.67;;;-0.90;32.50;;;;;;5051871;28;20643;-69
2022/12/08 03:36:09;;;;;;;91.32;65.97;;;-1.00;33.00;;;;;;5051946;28;20577;-69
2022/12/08 03:38:40;;;;;;;82.10;57.08;;;-1.00;33.10;;;;;;5052057;28;20170;-70
2022/12/08 03:41:17;;;;;;;92.25;69.63;;;-1.10;32.90;;;;;;5051992;28;20183;-70
2022/12/08 03:43:48;;;;;;;90.20;44.72;;;-1.10;33.00;;;;;;5051758;28;20172;-70
2022/12/08 03:46:15;;;;;;;82.18;51.53;;;-1.10;32.80;;;;;;5051891;28;20444;-70
2022/12/08 03:48:41;;;;;;;89.95;65.80;;;-1.10;32.60;;;;;;5051878;28;20175;-68
2022/12/08 03:51:07;;;;;;;89.63;53.90;;;-1.10;32.20;;;;;;5050496;28;20718;-69
2022/12/08 03:53:33;;;;;;;83.88;55.17;;;-1.10;33.00;;;;;;5051548;28;20176;-70
2022/12/08 03:55:58;;;;;;;81.33;53.13;;;-1.10;33.00;;;;;;5051677;28;20585;-69
2022/12/08 03:58:24;;;;;;;78.87;45.50;;;-1.10;33.00;;;;;;5051726;28;20213;-70
2022/12/08 04:00:49;;;;;;;88.70;51.03;;;-1.10;33.00;;;;;;5051900;28;20177;-69
2022/12/08 04:03:15;;;;;;;81.93;53.33;;;-1.20;33.00;;;;;;5051481;28;20176;-69
2022/12/08 04:05:40;;;;;;;86.70;50.53;;;-1.20;33.00;;;;;;5051600;28;20549;-69
2022/12/08 04:08:06;;;;;;;85.10;56.20;;;-1.20;33.50;;;;;;5051706;28;20596;-69
2022/12/08 04:10:32;;;;;;;85.70;64.23;;;-1.10;33.00;;;;;;5051866;28;20182;-69
2022/12/08 04:12:57;;;;;;;83.80;45.13;;;-1.10;33.00;;;;;;5051485;28;20652;-69
2022/12/08 04:15:23;;;;;;;81.90;56.47;;;-1.10;33.00;;;;;;5051469;28;20737;-71
2022/12/08 04:17:49;;;;;;;86.27;74.77;;;-1.10;33.00;;;;;;5051687;28;20570;-69
2022/12/08 04:20:14;;;;;;;83.60;63.57;;;-1.20;33.00;;;;;;5051546;28;20185;-69
2022/12/08 04:22:40;;;;;;;83.37;62.97;;;-1.20;33.00;;;;;;5051259;28;20185;-69
2022/12/08 04:25:06;;;;;;;86.43;57.17;;;-1.30;32.90;;;;;;5051326;28;20214;-70
2022/12/08 04:27:31;;;;;;;84.20;51.20;;;-1.30;32.90;;;;;;5051758;28;20203;-70
2022/12/08 04:29:57;;;;;;;89.27;64.17;;;-1.30;32.90;;;;;;5051490;28;20169;-69
2022/12/08 04:32:22;;;;;;;89.93;65.63;;;-1.40;32.80;;;;;;5052412;28;20189;-69
2022/12/08 04:34:48;;;;;;;98.13;73.03;;;-1.40;32.90;;;;;;5055400;28;20212;-70
2022/12/08 04:37:13;;;;;;;90.30;66.40;;;-1.30;32.90;;;;;;5055224;28;20180;-69
2022/12/08 04:39:39;;;;;;;87.30;65.60;;;-1.40;32.80;;;;;;5055025;28;20174;-69
2022/12/08 04:42:04;;;;;;;81.03;54.13;;;-1.40;32.90;;;;;;5055337;28;20200;-70
2022/12/08 04:44:30;;;;;;;87.53;68.20;;;-1.40;32.80;;;;;;5055255;28;20533;-70
2022/12/08 04:46:55;;;;;;;84.77;61.20;;;-1.40;32.80;;;;;;5055207;28;20205;-69
2022/12/08 04:49:21;;;;;;;87.60;68.07;;;-1.40;32.80;;;;;;5055173;28;20172;-69
2022/12/08 04:51:47;;;;;;;82.83;59.30;;;-1.40;32.80;;;;;;5053467;28;20227;-69
2022/12/08 04:54:12;;;;;;;89.77;76.77;;;-1.50;32.70;;;;;;5054941;28;20170;-70
2022/12/08 04:56:38;;;;;;;91.43;63.20;;;-1.50;32.70;;;;;;5054873;28;20214;-70
2022/12/08 04:59:03;;;;;;;89.07;68.83;;;-1.50;32.80;;;;;;5053605;28;20209;-69
2022/12/08 05:01:29;;;;;;;104.73;94.43;;;-1.60;32.50;;;;;;5054694;28;20186;-69
2022/12/08 05:03:54;;;;;;;80.73;47.83;;;-1.60;32.60;;;;;;5054676;28;20178;-70
2022/12/08 05:06:20;;;;;;;86.97;76.50;;;-1.60;32.60;;;;;;5054578;28;20260;-69
2022/12/08 05:08:45;;;;;;;80.80;49.50;;;-1.70;32.50;;;;;;5054726;28;20233;-69
2022/12/08 05:11:11;;;;;;;92.03;71.77;;;-1.70;32.50;;;;;;5054641;28;20182;-69
2022/12/08 05:13:37;;;;;;;84.38;57.80;;;-1.60;32.60;;;;;;5054400;28;20223;-69
2022/12/08 05:16:05;;;;;;;89.20;70.23;;;-1.60;32.60;;;;;;5054501;28;20241;-70
2022/12/08 05:18:31;;;;;;;87.25;59.72;;;-1.70;32.60;;;;;;5054505;28;20181;-69
2022/12/08 05:20:57;;;;;;;94.63;67.07;;;-1.70;32.50;;;;;;5054549;28;20173;-69
2022/12/08 05:23:22;;;;;;;91.93;74.77;;;-1.70;32.50;;;;;;5053128;28;20546;-68
2022/12/08 05:25:48;;;;;;;93.07;71.07;;;-1.70;32.50;;;;;;5054979;28;20817;-69
2022/12/08 05:28:14;;;;;;;91.07;61.67;;;-1.70;32.60;;;;;;5054440;28;20260;-69
2022/12/08 05:30:39;;;;;;;95.67;85.40;;;-1.70;32.50;;;;;;5054660;28;20173;-69
2022/12/08 05:33:05;;;;;;;90.33;69.23;;;-1.70;32.50;;;;;;5052694;28;20180;-69
2022/12/08 05:35:30;;;;;;;91.63;69.73;;;-1.70;32.50;;;;;;5053891;28;20578;-69
2022/12/08 05:37:56;;;;;;;88.03;66.73;;;-1.80;32.50;;;;;;5054218;28;20548;-69
2022/12/08 05:40:21;;;;;;;82.13;57.43;;;-1.80;32.50;;;;;;5054133;28;20186;-69
2022/12/08 05:42:47;;;;;;;84.17;64.80;;;-1.70;33.10;;;;;;5053829;28;20185;-69
2022/12/08 05:45:12;;;;;;;84.50;66.43;;;-1.70;32.60;;;;;;5054037;28;20204;-69
2022/12/08 05:47:38;;;;;;;80.60;51.93;;;-1.70;32.50;;;;;;5054074;28;20205;-69
2022/12/08 05:50:05;;;;;;;80.60;55.30;;;-1.70;32.50;;;;;;5053901;28;20173;-69
2022/12/08 05:52:31;;;;;;;89.43;59.70;;;-1.80;33.20;;;;;;5053715;28;20195;-69
2022/12/08 05:54:57;;;;;;;119.80;79.20;;;-1.80;32.50;;;;;;5053410;28;20208;-69
2022/12/08 05:57:23;;;;;;;127.03;87.50;;;-1.80;32.50;;;;;;5053956;28;20551;-68
2022/12/08 05:59:48;;;;;;;118.00;88.00;;;-1.80;32.50;;;;;;5053834;28;20267;-70
2022/12/08 06:02:14;;;;;;;109.93;73.00;;;-1.80;32.50;;;;;;5053542;28;20574;-69
2022/12/08 06:04:39;;;;;;;118.63;82.13;;;-1.90;32.40;;;;;;5053486;28;20202;-69
2022/12/08 06:07:07;;;;;;;124.03;83.63;;;-1.80;32.50;;;;;;5053535;28;20177;-69
2022/12/08 06:09:32;;;;;;;121.15;83.25;;;-1.80;32.50;;;;;;5053660;28;20182;-69
2022/12/08 06:11:58;;;;;;;113.53;82.47;;;-1.70;32.10;;;;;;5053141;28;20177;-69
2022/12/08 06:14:23;;;;;;;106.93;82.17;;;-1.80;32.40;;;;;;5053355;28;20198;-69
2022/12/08 06:16:49;;;;;;;100.07;79.87;;;-1.80;32.50;;;;;;5053363;28;20243;-69
2022/12/08 06:19:15;;;;;;;89.40;70.90;;;-1.80;32.50;;;;;;5053193;28;20180;-69
2022/12/08 06:21:40;;;;;;;78.30;34.13;;;-1.90;32.40;;;;;;5051628;28;20180;-69
2022/12/08 06:24:06;;;;;;;81.00;53.47;;;-1.80;32.50;;;;;;5052942;28;20497;-69
2022/12/08 06:26:31;;;;;;;84.03;49.63;;;-1.80;30.90;;;;;;5053345;28;20180;-69
2022/12/08 06:28:59;;;;;;;87.23;59.77;;;-2.00;32.30;;;;;;5053277;28;20193;-69
2022/12/08 06:31:25;;;;;;;85.38;59.65;;;-2.10;33.30;;;;;;5052989;28;20173;-69
2022/12/08 06:33:52;;;;;;;84.13;58.25;;;-2.10;33.20;;;;;;5052884;28;20692;-69
2022/12/08 06:36:20;;;;;;;81.57;57.60;;;-2.10;34.40;;;;;;5052863;28;20302;-70
2022/12/08 06:38:47;;;;;;;85.30;56.92;;;-2.00;34.10;;;;;;5052942;28;20252;-69
2022/12/08 06:41:13;;;;;;;85.53;54.03;;;-2.10;34.20;;;;;;5052963;28;20630;-68
2022/12/08 06:43:39;;;;;;;78.83;51.67;;;-2.10;34.70;;;;;;5052666;28;20183;-69
2022/12/08 06:46:08;;;;;;;85.50;63.90;;;-2.10;34.20;;;;;;5053305;28;20527;-69
2022/12/08 06:48:33;;;;;;;87.85;62.42;;;-2.10;35.60;;;;;;5052936;28;20587;-69
2022/12/08 06:51:07;;;;;;;82.90;55.17;;;-2.00;36.20;;;;;;5052929;28;20235;-68
2022/12/08 06:53:32;;;;;;;80.05;49.60;;;-1.90;37.90;;;;;;5052280;28;20231;-68
2022/12/08 06:55:58;;;;;;;81.03;47.67;;;-1.70;37.30;;;;;;5052255;28;20220;-69
2022/12/08 06:58:23;;;;;;;83.03;54.40;;;-1.70;37.30;;;;;;5051436;28;20220;-69
2022/12/08 07:00:49;;;;;;;80.67;52.60;;;-1.50;36.90;;;;;;5052627;28;20178;-69
2022/12/08 07:03:15;;;;;;;83.53;54.90;;;-1.40;37.70;;;;;;5052318;28;20177;-69
2022/12/08 07:05:40;;;;;;;87.77;72.10;;;-1.30;36.70;;;;;;5052709;28;20196;-69
2022/12/08 07:08:07;;;;;;;84.67;58.00;;;-1.20;36.20;;;;;;5052454;28;20184;-69
2022/12/08 07:10:34;;;;;;;88.82;62.28;;;-1.20;36.40;;;;;;5052429;28;20184;-69
2022/12/08 07:12:59;;;;;;;87.82;68.18;;;-1.10;35.80;;;;;;5052675;28;20528;-70
2022/12/08 07:15:25;;;;;;;91.63;63.13;;;-1.10;34.80;;;;;;5052725;28;20211;-69
2022/12/08 07:17:51;;;;;;;87.77;63.07;;;-1.00;34.10;;;;;;5052911;28;20180;-69
2022/12/08 07:20:16;;;;;;;86.17;66.43;;;-1.00;34.20;;;;;;5053249;28;20176;-70
2022/12/08 07:22:52;;;;;;;84.50;56.27;;;-0.90;34.60;;;;;;5052807;28;20415;-71
2022/12/08 07:25:18;;;;;;;89.45;70.10;;;-0.80;34.60;;;;;;5052582;28;20232;-69
2022/12/08 07:27:44;;;;;;;86.78;69.10;;;-0.70;33.40;;;;;;5052649;28;20179;-69
2022/12/08 07:30:10;;;;;;;88.23;68.43;;;-0.70;32.40;;;;;;5052465;28;20253;-69
2022/12/08 07:32:37;;;;;;;85.55;60.88;;;-0.60;31.00;;;;;;5052230;28;20414;-68
2022/12/08 07:35:03;;;;;;;100.60;89.63;;;-0.60;31.60;;;;;;5052521;28;20296;-69
2022/12/08 07:37:29;;;;;;;95.20;75.30;;;-0.60;31.30;;;;;;5052639;28;20174;-69
2022/12/08 07:39:55;;;;;;;87.90;67.83;;;-0.60;30.30;;;;;;5052438;28;20181;-69
2022/12/08 07:42:20;;;;;;;95.23;82.47;;;-0.60;30.30;;;;;;5052210;28;20254;-69
2022/12/08 07:44:46;;;;;;;101.60;89.23;;;-0.60;30.40;;;;;;5052381;28;20205;-71
2022/12/08 07:47:11;;;;;;;97.60;83.60;;;-0.50;30.40;;;;;;5052221;28;20192;-67
2022/12/08 07:49:37;;;;;;;104.30;86.90;;;-0.50;29.70;;;;;;5052094;28;20182;-70
2022/12/08 07:52:02;;;;;;;111.57;100.23;;;-0.50;29.90;;;;;;5052349;28;20521;-69
2022/12/08 07:54:28;;;;;;;100.23;89.70;;;-0.50;30.30;;;;;;5052278;28;20207;-69
2022/12/08 07:56:56;;;;;;;86.03;56.63;;;-0.40;30.30;;;;;;5052240;28;20236;-69
2022/12/08 07:59:22;;;;;;;90.43;65.38;;;-0.40;30.00;;;;;;5052537;28;20694;-70
2022/12/08 08:01:49;;;;;;;97.73;81.73;;;-0.30;30.70;;;;;;5050829;28;20174;-69
2022/12/08 08:04:15;;;;;;;86.95;57.80;;;-0.20;30.00;;;;;;5052415;28;20515;-69
2022/12/08 08:06:40;;;;;;;89.57;76.07;;;-0.10;29.50;;;;;;5053874;28;20725;-69
2022/12/08 08:09:06;;;;;;;91.57;65.37;;;0.00;29.40;;;;;;5056738;28;20548;-69
2022/12/08 08:11:31;;;;;;;95.00;82.60;;;0.10;29.20;;;;;;5056782;28;20226;-69
2022/12/08 08:13:57;;;;;;;92.50;70.50;;;0.20;28.90;;;;;;5056315;28;20187;-69
2022/12/08 08:16:22;;;;;;;106.53;95.47;;;0.30;29.00;;;;;;5056660;28;20284;-69
2022/12/08 08:18:49;;;;;;;101.53;85.43;;;0.30;28.10;;;;;;5056641;28;20510;-69
2022/12/08 08:21:16;;;;;;;137.48;124.75;;;0.40;27.00;;;;;;5056666;28;20174;-69
2022/12/08 08:23:42;;;;;;;107.60;94.30;;;0.40;27.10;;;;;;5054942;28;20644;-69
2022/12/08 08:26:07;;;;;;;96.10;84.60;;;0.50;26.90;;;;;;5056161;28;20214;-68
2022/12/08 08:28:33;;;;;;;97.57;83.20;;;0.50;26.40;;;;;;5056512;28;20232;-69
2022/12/08 08:31:00;;;;;;;186.95;172.45;;;0.40;26.10;;;;;;5056120;28;20182;-69
2022/12/08 08:33:26;;;;;;;105.47;93.60;;;0.40;26.30;;;;;;5056071;28;20178;-70
2022/12/08 08:35:52;;;;;;;113.60;102.15;;;0.40;26.50;;;;;;5055796;28;20215;-68
2022/12/08 08:38:18;;;;;;;106.53;94.97;;;0.30;26.60;;;;;;5055346;28;20198;-69
2022/12/08 08:40:44;;;;;;;100.43;88.60;;;0.30;26.30;;;;;;5055130;28;20206;-69
2022/12/08 08:43:27;;;;;;;94.30;58.53;;;0.40;26.00;;;;;;5054956;28;20247;-69
2022/12/08 08:45:59;;;;;;;121.40;109.95;;;0.30;25.60;;;;;;5055040;28;20201;-69
2022/12/08 08:48:26;;;;;;;90.93;64.65;;;0.30;25.80;;;;;;5055177;28;20175;-69
2022/12/08 08:50:52;;;;;;;111.28;93.97;;;0.20;25.90;;;;;;5054944;28;20521;-69
2022/12/08 08:53:18;;;;;;;107.95;90.95;;;0.20;26.40;;;;;;5054779;28;20544;-69
2022/12/08 08:55:43;;;;;;;96.87;71.30;;;0.20;26.70;;;;;;5054894;28;20217;-69
2022/12/08 08:58:09;;;;;;;109.97;85.27;;;0.20;27.60;;;;;;5055115;28;20182;-69
2022/12/08 09:00:35;;;;;;;123.67;104.27;;;0.20;26.80;;;;;;5054951;28;20418;-69
2022/12/08 09:03:00;;;;;;;148.13;132.40;;;0.20;26.80;;;;;;5053412;28;20174;-69
2022/12/08 09:05:26;;;;;;;157.73;134.87;;;0.30;26.90;;;;;;5054599;28;20554;-69
2022/12/08 09:07:51;;;;;;;130.00;86.90;;;0.40;26.80;;;;;;5054656;28;20236;-69
2022/12/08 09:10:17;;;;;;;130.00;106.97;;;0.40;27.10;;;;;;5054752;28;20178;-69
2022/12/08 09:12:43;;;;;;;121.13;104.20;;;0.50;27.40;;;;;;5054300;28;20593;-69
2022/12/08 09:15:08;;;;;;;114.13;94.07;;;0.50;26.90;;;;;;5053128;28;20202;-70
2022/12/08 09:17:34;;;;;;;104.63;85.17;;;0.60;26.80;;;;;;5054139;28;20544;-69
2022/12/08 09:20:00;;;;;;;102.23;62.13;;;0.70;27.00;;;;;;5054466;28;20663;-69
2022/12/08 09:22:26;;;;;;;95.77;57.37;;;0.70;26.20;;;;;;5054233;28;20249;-69
2022/12/08 09:24:51;;;;;;;255.87;235.87;;;0.70;26.40;;;;;;5054469;28;20221;-69
2022/12/08 09:27:17;;;;;;;109.27;64.63;;;0.80;25.70;;;;;;5054418;28;20494;-69
2022/12/08 09:29:43;;;;;;;103.87;91.87;;;0.90;25.80;;;;;;5054466;28;20166;-69
2022/12/08 09:32:09;;;;;;;112.30;98.40;;;1.00;26.30;;;;;;5054219;28;20233;-68
2022/12/08 09:34:35;;;;;;;209.20;191.77;;;1.10;25.90;;;;;;5054208;28;20737;-69
2022/12/08 09:37:00;;;;;;;117.17;105.17;;;1.20;24.60;;;;;;5054229;28;20221;-69
2022/12/08 09:39:26;;;;;;;122.30;110.53;;;1.20;24.30;;;;;;5054051;28;20171;-69
2022/12/08 09:42:03;;;;;;;146.07;132.10;;;1.30;24.00;;;;;;5054075;28;20190;-69
2022/12/08 09:45:14;;;;;;;109.97;98.70;;;1.40;23.80;;;;;;5054094;28;20397;-69
2022/12/08 09:47:47;;;;;;;119.50;108.25;;;1.50;23.10;;;;;;5011922;28;20180;-69
2022/12/08 09:50:29;;;;;;;133.70;121.03;;;1.60;22.40;;;;;;5012015;28;20172;-71
2022/12/08 09:53:07;;;;;;;159.38;146.00;;;1.70;21.80;;;;;;5039932;28;20184;-70
2022/12/08 09:55:41;;;;;;;196.07;181.75;;;1.80;20.30;;;;;;5053692;28;20247;-70
2022/12/08 09:58:51;;;;;;;204.43;190.07;;;2.00;19.70;;;;;;5053754;28;20175;-70
2022/12/08 10:01:18;;;;;;;221.38;206.45;;;2.00;19.00;;;;;;5033992;28;20191;-69
2022/12/08 10:03:45;;;;;;;265.85;249.65;;;2.10;19.00;;;;;;5053364;28;20256;-69
2022/12/08 10:06:32;;;;;;;130.38;118.47;;;2.20;18.30;;;;;;5053641;28;20195;-69
2022/12/08 10:09:31;;;;;;;141.00;128.95;;;2.20;17.40;;;;;;5053511;28;20179;-69
2022/12/08 10:12:09;;;;;;;170.70;157.40;;;2.40;17.00;;;;;;5053216;28;20177;-69
2022/12/08 10:14:44;;;;;;;154.68;142.18;;;2.60;16.50;;;;;;5053429;28;20193;-69
2022/12/08 10:17:33;;;;;;;148.32;135.93;;;2.80;15.90;;;;;;5053581;28;20187;-70
2022/12/08 10:20:05;;;;;;;173.13;159.20;;;2.80;15.50;;;;;;5053764;28;20631;-69
2022/12/08 10:22:34;;;;;;;222.05;206.10;;;2.90;15.20;;;;;;5053181;28;20579;-69
2022/12/08 10:25:05;;;;;;;132.60;121.10;;;2.80;14.80;;;;;;5053177;28;20267;-69
2022/12/08 10:27:34;;;;;;;135.05;122.90;;;2.80;15.40;;;;;;5053421;28;20184;-69
2022/12/08 10:30:00;;;;;;;145.85;133.55;;;2.80;14.50;;;;;;5052387;28;20238;-69
2022/12/08 10:32:33;;;;;;;181.83;168.23;;;2.90;14.40;;;;;;5053096;28;20174;-69
2022/12/08 10:35:11;;;;;;;213.60;198.50;;;2.80;14.20;;;;;;5053082;28;20241;-69
2022/12/08 10:37:37;;;;;;;212.45;197.15;;;2.80;14.50;;;;;;5053121;28;20176;-69
2022/12/08 10:40:10;;;;;;;164.32;150.70;;;2.90;14.60;;;;;;5053215;28;20179;-69
2022/12/08 10:42:42;;;;;;;270.60;253.02;;;3.00;14.60;;;;;;5052734;28;20180;-69
2022/12/08 10:45:16;;;;;;;240.52;223.82;;;3.00;13.60;;;;;;5052788;28;20260;-69
2022/12/08 10:47:43;;;;;;;142.73;130.50;;;3.10;13.80;;;;;;5052806;28;20188;-70
2022/12/08 10:50:18;;;;;;;223.38;207.63;;;3.40;14.10;;;;;;5052735;28;20181;-69
2022/12/08 10:52:44;;;;;;;305.77;281.92;;;3.70;11.90;;;;;;5052619;28;20198;-69
2022/12/08 10:55:18;;;;;;;265.10;246.32;;;3.70;12.40;;;;;;5052812;28;20279;-69
2022/12/08 10:57:44;;;;;;;184.15;170.80;;;3.50;11.90;;;;;;5052669;28;20186;-69
2022/12/08 11:00:16;;;;;;;176.63;162.90;;;3.50;12.50;;;;;;5052799;28;20538;-69
2022/12/08 11:02:52;;;;;;;175.40;161.90;;;3.30;12.40;;;;;;5051068;28;20177;-69
2022/12/08 11:05:20;;;;;;;124.63;113.30;;;3.30;12.60;;;;;;5051170;28;20569;-69
2022/12/08 11:07:48;;;;;;;243.40;227.68;;;3.20;13.00;;;;;;5052627;28;20184;-69
2022/12/08 11:10:17;;;;;;;250.25;233.00;;;3.20;13.60;;;;;;5052668;28;20176;-69
2022/12/08 11:12:43;;;;;;;304.20;282.88;;;3.00;12.70;;;;;;5052300;28;20544;-70
2022/12/08 11:15:15;;;;;;;126.30;115.03;;;2.80;12.50;;;;;;5052261;28;20209;-70
2022/12/08 11:17:40;;;;;;;201.98;187.13;;;2.70;13.10;;;;;;5052470;28;20170;-70
2022/12/08 11:20:10;;;;;;;142.85;130.82;;;2.60;12.70;;;;;;5052592;28;20227;-70
2022/12/08 11:22:53;;;;;;;195.65;181.98;;;2.60;13.60;;;;;;5052147;28;20215;-69
2022/12/08 11:25:26;;;;;;;132.70;121.50;;;2.70;13.40;;;;;;5083010;22;20235;-70
2022/12/08 11:27:56;;;;;;;149.57;137.50;;;2.80;13.00;;;;;;5072755;28;20175;-70
2022/12/08 11:30:26;;;;;;;148.73;136.73;;;2.80;12.60;;;;;;5087894;28;20234;-70
2022/12/08 11:33:12;;;;;;;231.00;215.40;;;2.80;12.60;;;;;;5072094;28;20202;-70
2022/12/08 11:35:43;;;;;;;134.98;123.35;;;2.70;11.90;;;;;;5072223;28;20244;-70
2022/12/08 11:38:20;;;;;;;150.23;138.43;;;2.60;11.60;;;;;;5072412;28;20178;-72
2022/12/08 11:40:49;;;;;;;103.25;92.85;;;2.70;12.80;;;;;;5072386;28;20596;-70
2022/12/08 11:43:41;;;;;;;115.50;104.80;;;2.50;11.80;;;;;;5072333;28;20452;-71
2022/12/08 11:46:26;;;;;;;144.32;132.93;;;2.50;12.70;;;;;;5072539;28;20194;-70
2022/12/08 11:49:05;;;;;;;170.70;156.82;;;2.50;12.00;;;;;;5072550;28;20188;-70
2022/12/08 11:51:38;;;;;;;194.82;180.75;;;2.50;12.50;;;;;;5072093;28;20181;-70
2022/12/08 11:54:22;;;;;;;211.40;196.55;;;2.50;12.20;;;;;;5087535;28;20596;-70
2022/12/08 11:56:59;;;;;;;169.45;156.93;;;2.50;12.10;;;;;;5087381;28;20204;-70
2022/12/08 11:59:43;;;;;;;137.10;125.55;;;2.60;12.10;;;;;;5072094;28;20179;-70
2022/12/08 12:02:17;;;;;;;99.95;88.65;;;2.70;12.00;;;;;;5071581;28;20179;-70
2022/12/08 12:05:08;;;;;;;191.30;177.57;;;2.80;11.30;;;;;;5071705;28;20222;-70
2022/12/08 12:07:45;;;;;;;161.07;148.48;;;3.00;11.30;;;;;;5071766;28;20171;-70
2022/12/08 12:10:34;;;;;;;276.48;259.05;;;3.10;10.40;;;;;;5087244;28;20176;-70
2022/12/08 12:13:38;;;;;;;222.35;207.00;;;3.10;10.40;;;;;;5071353;28;20259;-69
2022/12/08 12:16:29;;;;;;;160.35;147.65;;;3.20;10.70;;;;;;5063225;28;20602;-70
2022/12/08 12:18:58;;;;;;;110.88;100.32;;;3.20;10.50;;;;;;5071633;28;20511;-70
2022/12/08 12:21:33;;;;;;;106.50;95.95;;;3.20;10.50;;;;;;5071466;28;20180;-70
2022/12/08 12:24:09;;;;;;;116.18;105.70;;;3.20;9.90;;;;;;5071725;28;20177;-70
2022/12/08 12:26:37;;;;;;;172.23;159.38;;;3.10;10.40;;;;;;5071521;28;20216;-70
2022/12/08 12:29:11;;;;;;;163.88;151.27;;;3.10;10.40;;;;;;5071598;28;20200;-70
2022/12/08 12:31:41;;;;;;;146.18;134.20;;;3.20;10.50;;;;;;5071159;28;20175;-70
2022/12/08 12:34:15;;;;;;;179.75;166.77;;;3.10;10.40;;;;;;5071457;28;20173;-70
2022/12/08 12:36:57;;;;;;;177.70;165.07;;;3.10;10.40;;;;;;5071657;28;20226;-70
2022/12/08 12:39:30;;;;;;;156.95;144.45;;;3.30;10.50;;;;;;5071466;28;20806;-70